Groton, CT (06340)

8:11 PM EDT on April 24, 2017 (GMT -0400)
South Road, Groton, CT | | Change Station

Elev 20 ft 41.34 °N, 72.04 °W | Updated 3 minutes ago

Overcast
Overcast
50.8 °F
Feels Like 50.8 °F
N
0.0
Wind Variable Wind from ESE
Gusts 0.0 mph

Today
High -- | Low -- °F
--% Chance of Precip.
Yesterday
High -- | Low -- °F
Precip. -- in
Pressure 30.18 in
Visibility 10.0 miles
Clouds Few 6000 ft
Mostly Cloudy 8500 ft
Overcast 11000 ft
Dew Point 45 °F
Humidity 81%
Rainfall 0.00 in
Snow Depth Not available.
5:54 AM 7:38 PM
Waning Crescent, 3% visible
METAR KGON 242356Z 05004KT 10SM FEW060 BKN085 OVC110 10/06 A3018 RMK AO2 RAB03E13 SLP218 P0000 60000 T01000056 10128 20094 53001
Pressure 30.18 in
Visibility 10.0 miles
Clouds Few 6000 ft
Mostly Cloudy 8500 ft
Overcast 11000 ft
Dew Point 45 °F
Humidity 81%
Rainfall 0.00 in
Snow Depth Not available.
5:54 AM 7:38 PM
Waning Crescent, 3% visible
METAR KGON 242356Z 05004KT 10SM FEW060 BKN085 OVC110 10/06 A3018 RMK AO2 RAB03E13 SLP218 P0000 60000 T01000056 10128 20094 53001

Get Severe Weather Alerts

Thanks for signing up!

Be on the lookout for a verification email in your inbox.

You'll start receiving the daily forecast at 8 AM.

×

10-Day Weather Forecast

Almanac

Astronomy

Apr. 24, 2017 Rise Set
Actual Time
Civil Twilight
Nautical Twilight
Astronomical Twilight
Moon
Length of Visible Light
Length of Day
Tomorrow will be .
, % of the Moon is Illuminated

Today's Extremes

State Highs State Lows

Community

WunderPhotos

WunderBlog® & News

Nearby

Air Quality

  Air Quality AQ Index Pollutant
Not available.

Snow Depth

Station Depth Elevation

Earthquake Activity

City Distance Mag. Time & Date
Minimum magnitude displayed is 2.5.

Coastal Water Temperatures

Place Temperature

Stations

Nearby Weather Stations

Station Location Temp. Windchill Dew Point Humidity Wind Precip. Elev Updated Type
                   

Watches & Warnings

There are currently no watches in effect.